This is the latest recevied weather packets stored in our database for station/object K7FLA. If no packets are shown the sender has not sent any weather packets the latest 10 day(s).
| Time | Temp. | Humidity | Pressure | Rain* | Wind** | Luminosity | Snow |
|---|---|---|---|---|---|---|---|
| 1788633115 | 33.89° C | 13% | 1096.9 hPa | 0 mm | - | 723 W/m² | - |
| 1788632815 | 34.44° C | 15% | 1097.1 hPa | 0 mm | - | 762 W/m² | - |
| 1788632514 | 33.89° C | 13% | 1097.1 hPa | 0 mm | - | 768 W/m² | - |
| 1788632210 | 34.44° C | 13% | 1097.3 hPa | 0 mm | - | 753 W/m² | - |
| 1788631908 | 34.44° C | 14% | 1097.3 hPa | 0 mm | - | 671 W/m² | - |
| 1788631603 | 34.44° C | 15% | 1097.3 hPa | 0 mm | - | 728 W/m² | - |
| 1788631299 | 34.44° C | 16% | 1097.3 hPa | 0 mm | - | 743 W/m² | - |
| 1788630997 | 34.44° C | 14% | 1097.3 hPa | 0 mm | - | 622 W/m² | - |
| 1788630693 | 33.89° C | 18% | 1097 hPa | 0 mm | - | 808 W/m² | - |
| 1788630389 | 33.89° C | 16% | 1097.1 hPa | 0 mm | - | 757 W/m² | - |
| 1788630084 | 33.33° C | 16% | 1096.9 hPa | 0 mm | - | 701 W/m² | - |
| 1788629780 | 33.89° C | 16% | 1097 hPa | 0 mm | - | 664 W/m² | - |
| 1788629476 | 33.33° C | 15% | 1096.9 hPa | 0 mm | - | 647 W/m² | - |
| 1788629175 | 33.33° C | 17% | 1096.9 hPa | 0 mm | - | 636 W/m² | - |
| 1788628869 | 33.33° C | 16% | 1096.8 hPa | 0 mm | - | 621 W/m² | - |
| 1788628566 | 33.33° C | 16% | 1096.8 hPa | 0 mm | - | 609 W/m² | - |
| 1788628261 | 32.78° C | 16% | 1096.7 hPa | 0 mm | - | 593 W/m² | - |
| 1788627958 | 32.78° C | 17% | 1096.8 hPa | 0 mm | - | 579 W/m² | - |
| 1788627653 | 32.22° C | 19% | 1096.8 hPa | 0 mm | - | 562 W/m² | - |
| 1788627348 | 31.67° C | 19% | 1096.7 hPa | 0 mm | - | 553 W/m² | - |
| 1788627043 | 31.67° C | 18% | 1096.7 hPa | 0 mm | - | 538 W/m² | - |
| 1788626737 | 31.67° C | 18% | 1096.7 hPa | 0 mm | - | 518 W/m² | - |
| 1788626432 | 31.11° C | 18% | 1096.8 hPa | 0 mm | - | 497 W/m² | - |
| 1788626128 | 31.11° C | 20% | 1096.8 hPa | 0 mm | - | 478 W/m² | - |
| 1788625824 | 31.67° C | 17% | 1096.5 hPa | 0 mm | - | 462 W/m² | - |
* Rain latest hour (hover to see other rain measurements)
** Current wind speed in m/s (hover to see current wind gust speed)